Eems Servant — PBTI — position and weather

sailwx.info

Track history (hours):
 
Tides and Currents Weather Stations Pressure Air Temp Water Temp Dewpoint Dewpoint Depression Visibility Wind Speed Wind Dir Waves Ship Positions

Eems Servant

Last reported at 2016-Feb-09 02:33 UTC. Time now 2016-Feb-11 12:59 UTC.
Position N 48°01' W 005°18'.

Length 87 m; draft 4.5 m.

Type: Cargo ship. MMSI: 246236000.

Date/timePositionNaut miles runAvg speedWind from/ knotsBaromVisibWave heightAir tempDewpointWater temp
2016-Feb-09 02:33N 48°01' W 005°18'20 4.9
2016-Feb-08 22:33N 48°06' W 004°50'15 7.0
2016-Feb-08 20:22N 48°07' W 004°27'5 4.9
2016-Feb-08 19:16N 48°07' W 004°19'0 0.1
2016-Feb-08 18:04N 48°07' W 004°19'0 0.0
2016-Feb-08 17:25N 48°07' W 004°19'0 0.0
2016-Feb-08 16:16N 48°07' W 004°19'0 0.0
2016-Feb-08 15:22N 48°07' W 004°19'0 0.0
2016-Feb-08 14:25N 48°07' W 004°19'0 0.0
2016-Feb-08 13:25N 48°07' W 004°19'0 0.0
2016-Feb-08 12:22N 48°07' W 004°19'0 0.0
2016-Feb-08 11:25N 48°07' W 004°19'0 0.0
2016-Feb-08 10:31N 48°07' W 004°19'0 0.0
2016-Feb-08 09:04N 48°07' W 004°19'0 0.0
2016-Feb-08 08:31N 48°07' W 004°19'0 0.0
2016-Feb-08 07:13N 48°07' W 004°19'0 0.0
2016-Feb-08 06:28N 48°07' W 004°19'0 0.0
2016-Feb-08 05:25N 48°07' W 004°19'0 0.0
2016-Feb-08 04:31N 48°07' W 004°19'0 0.0
2016-Feb-08 03:31N 48°07' W 004°19'0 0.0
2016-Feb-08 02:22N 48°07' W 004°19'0 0.0
2016-Feb-08 01:31N 48°07' W 004°19'0 0.0
2016-Feb-08 00:25N 48°07' W 004°19'0 0.0
2016-Feb-07 23:31N 48°07' W 004°19'0 0.0
2016-Feb-07 22:25N 48°07' W 004°19'0 0.0
2016-Feb-07 21:22N 48°07' W 004°19'0 0.0
2016-Feb-07 20:13N 48°07' W 004°19'0 0.0
2016-Feb-07 19:13N 48°07' W 004°19'0 0.0
2016-Feb-07 18:25N 48°07' W 004°19'0 0.0
2016-Feb-07 17:31N 48°07' W 004°19'0 0.0
2016-Feb-07 16:31N 48°07' W 004°19'0 0.0
2016-Feb-07 15:25N 48°07' W 004°19'0 0.0
2016-Feb-07 14:31N 48°07' W 004°19'0 0.0
2016-Feb-07 13:28N 48°07' W 004°19'0 0.0
2016-Feb-07 12:31N 48°07' W 004°19'0 0.0
2016-Feb-07 11:16N 48°07' W 004°19'0 0.0
2016-Feb-07 10:31N 48°07' W 004°19'0 0.0
2016-Feb-07 09:13N 48°07' W 004°19'0 0.0
2016-Feb-07 08:25N 48°07' W 004°19'0 0.0
2016-Feb-07 07:31N 48°07' W 004°19'0 0.0
2016-Feb-07 06:22N 48°07' W 004°19'0 0.0
2016-Feb-07 05:25N 48°07' W 004°19'0 0.0
2016-Feb-07 04:28N 48°07' W 004°19'0 0.0
2016-Feb-07 03:10N 48°07' W 004°19'0 0.0
2016-Feb-07 02:28N 48°07' W 004°19'0 0.0
2016-Feb-07 01:05N 48°07' W 004°19'11 7.5
2016-Feb-06 23:33N 48°08' W 004°36'9 9.3
2016-Feb-06 22:34N 48°09' W 004°50'149 5.1
2016-Feb-05 17:18N 50°36' W 005°28'5 6.4
2016-Feb-05 16:33N 50°39' W 005°22'101 8.1
2016-Feb-05 04:06N 51°29' W 003°03'4 7.3
2016-Feb-05 03:33N 51°33' W 002°59'1 0.0
2016-Feb-04 02:31N 51°34' W 002°58'1 0.8
2016-Feb-04 01:33N 51°33' W 002°59'0 0.0
2016-Feb-02 00:23N 51°33' W 002°59'1 0.9
2016-Feb-01 23:11N 51°32' W 002°59'104 8.0
2016-Feb-01 10:14N 50°37' W 005°19'251 6.0
2016-Jan-30 16:29N 50°59' E 001°18'6 6.8
2016-Jan-30 15:33N 51°03' E 001°25'7 6.8
2016-Jan-30 14:33N 51°07' E 001°34'7 7.5
2016-Jan-30 13:33N 51°12' E 001°43'10 9.6
2016-Jan-30 12:33N 51°20' E 001°51'1110.5
2016-Jan-30 11:33N 51°29' E 002°00'10 9.7
2016-Jan-30 10:33N 51°36' E 002°11'  
Track history (hours):
 
Tides and Currents Weather Stations Pressure Air Temp Water Temp Dewpoint Dewpoint Depression Visibility Wind Speed Wind Dir Waves Ship Positions

Eems Servant

Last reported at 2016-Feb-09 02:33 UTC. Time now 2016-Feb-11 12:59 UTC.
Position N 48°01' W 005°18'.

Length 87 m; draft 4.5 m.

Type: Cargo ship. MMSI: 246236000.

Date/timePositionNaut miles runAvg speedWind from/ knotsBaromVisibWave heightAir tempDewpointWater temp
2016-Feb-09 02:33N 48°01' W 005°18'20 4.9
2016-Feb-08 22:33N 48°06' W 004°50'15 7.0
2016-Feb-08 20:22N 48°07' W 004°27'5 4.9
2016-Feb-08 19:16N 48°07' W 004°19'0 0.1
2016-Feb-08 18:04N 48°07' W 004°19'0 0.0
2016-Feb-08 17:25N 48°07' W 004°19'0 0.0
2016-Feb-08 16:16N 48°07' W 004°19'0 0.0
2016-Feb-08 15:22N 48°07' W 004°19'0 0.0
2016-Feb-08 14:25N 48°07' W 004°19'0 0.0
2016-Feb-08 13:25N 48°07' W 004°19'0 0.0
2016-Feb-08 12:22N 48°07' W 004°19'0 0.0
2016-Feb-08 11:25N 48°07' W 004°19'0 0.0
2016-Feb-08 10:31N 48°07' W 004°19'0 0.0
2016-Feb-08 09:04N 48°07' W 004°19'0 0.0
2016-Feb-08 08:31N 48°07' W 004°19'0 0.0
2016-Feb-08 07:13N 48°07' W 004°19'0 0.0
2016-Feb-08 06:28N 48°07' W 004°19'0 0.0
2016-Feb-08 05:25N 48°07' W 004°19'0 0.0
2016-Feb-08 04:31N 48°07' W 004°19'0 0.0
2016-Feb-08 03:31N 48°07' W 004°19'0 0.0
2016-Feb-08 02:22N 48°07' W 004°19'0 0.0
2016-Feb-08 01:31N 48°07' W 004°19'0 0.0
2016-Feb-08 00:25N 48°07' W 004°19'0 0.0
2016-Feb-07 23:31N 48°07' W 004°19'0 0.0
2016-Feb-07 22:25N 48°07' W 004°19'0 0.0
2016-Feb-07 21:22N 48°07' W 004°19'0 0.0
2016-Feb-07 20:13N 48°07' W 004°19'0 0.0
2016-Feb-07 19:13N 48°07' W 004°19'0 0.0
2016-Feb-07 18:25N 48°07' W 004°19'0 0.0
2016-Feb-07 17:31N 48°07' W 004°19'0 0.0
2016-Feb-07 16:31N 48°07' W 004°19'0 0.0
2016-Feb-07 15:25N 48°07' W 004°19'0 0.0
2016-Feb-07 14:31N 48°07' W 004°19'0 0.0
2016-Feb-07 13:28N 48°07' W 004°19'0 0.0
2016-Feb-07 12:31N 48°07' W 004°19'0 0.0
2016-Feb-07 11:16N 48°07' W 004°19'0 0.0
2016-Feb-07 10:31N 48°07' W 004°19'0 0.0
2016-Feb-07 09:13N 48°07' W 004°19'0 0.0
2016-Feb-07 08:25N 48°07' W 004°19'0 0.0
2016-Feb-07 07:31N 48°07' W 004°19'0 0.0
2016-Feb-07 06:22N 48°07' W 004°19'0 0.0
2016-Feb-07 05:25N 48°07' W 004°19'0 0.0
2016-Feb-07 04:28N 48°07' W 004°19'0 0.0
2016-Feb-07 03:10N 48°07' W 004°19'0 0.0
2016-Feb-07 02:28N 48°07' W 004°19'0 0.0
2016-Feb-07 01:05N 48°07' W 004°19'11 7.5
2016-Feb-06 23:33N 48°08' W 004°36'9 9.3
2016-Feb-06 22:34N 48°09' W 004°50'149 5.1
2016-Feb-05 17:18N 50°36' W 005°28'5 6.4
2016-Feb-05 16:33N 50°39' W 005°22'101 8.1
2016-Feb-05 04:06N 51°29' W 003°03'4 7.3
2016-Feb-05 03:33N 51°33' W 002°59'1 0.0
2016-Feb-04 02:31N 51°34' W 002°58'1 0.8
2016-Feb-04 01:33N 51°33' W 002°59'0 0.0
2016-Feb-02 00:23N 51°33' W 002°59'1 0.9
2016-Feb-01 23:11N 51°32' W 002°59'104 8.0
2016-Feb-01 10:14N 50°37' W 005°19'251 6.0
2016-Jan-30 16:29N 50°59' E 001°18'6 6.8
2016-Jan-30 15:33N 51°03' E 001°25'7 6.8
2016-Jan-30 14:33N 51°07' E 001°34'7 7.5
2016-Jan-30 13:33N 51°12' E 001°43'10 9.6
2016-Jan-30 12:33N 51°20' E 001°51'1110.5
2016-Jan-30 11:33N 51°29' E 002°00'10 9.7
2016-Jan-30 10:33N 51°36' E 002°11'  

Dump ship's entire track history